Time;durP1;ratioP1;P1;durP2;ratioP2;P2;SDS_P1;SDS_P2;PMS_P1;PMS_P2;Temp;Humidity;BMP_temperature;BMP_pressure;BME280_temperature;BME280_humidity;BME280_pressure;Samples;Min_cycle;Max_cycle;Signal;HPM_P1;HPM_P2
2021/07/03 00:00:07;;;;;;;17.10;11.23;;;15.60;99.90;;;;;;5059550;28;20048;-82
2021/07/03 00:02:34;;;;;;;13.73;10.15;;;15.50;99.90;;;;;;5069187;28;20585;-83
2021/07/03 00:05:00;;;;;;;14.43;10.95;;;15.50;99.90;;;;;;5023122;28;20051;-82
2021/07/03 00:07:27;;;;;;;16.13;10.27;;;15.50;99.90;;;;;;5069549;28;20521;-82
2021/07/03 00:09:53;;;;;;;12.82;9.68;;;15.40;99.90;;;;;;5064784;28;20049;-82
2021/07/03 00:12:20;;;;;;;12.70;9.65;;;15.40;99.90;;;;;;5084807;28;20040;-82
2021/07/03 00:14:46;;;;;;;13.73;10.82;;;15.40;99.90;;;;;;5069665;28;20056;-82
2021/07/03 00:17:13;;;;;;;17.80;12.27;;;15.40;99.90;;;;;;5049642;28;20051;-82
2021/07/03 00:19:39;;;;;;;16.88;12.40;;;15.30;99.90;;;;;;5056370;28;20036;-82
2021/07/03 00:22:06;;;;;;;15.07;10.95;;;15.30;99.90;;;;;;5040697;28;20495;-82
2021/07/03 00:24:32;;;;;;;15.32;11.70;;;15.30;99.90;;;;;;5061126;28;20371;-82
2021/07/03 00:26:59;;;;;;;15.82;11.25;;;15.30;99.90;;;;;;5076433;28;20044;-82
2021/07/03 00:29:25;;;;;;;15.80;11.40;;;15.30;99.90;;;;;;5058691;28;20049;-82
2021/07/03 00:31:52;;;;;;;15.07;11.00;;;15.30;99.90;;;;;;5049803;28;20055;-82
2021/07/03 00:34:19;;;;;;;19.58;10.30;;;15.20;99.90;;;;;;5060495;28;20043;-82
2021/07/03 00:36:45;;;;;;;15.93;10.57;;;15.20;99.90;;;;;;5036006;28;20685;-81
2021/07/03 00:39:12;;;;;;;17.65;11.68;;;15.20;99.90;;;;;;5062083;28;20043;-82
2021/07/03 00:41:38;;;;;;;15.38;11.30;;;15.20;99.90;;;;;;5070853;28;20048;-82
2021/07/03 00:44:05;;;;;;;15.43;11.43;;;15.20;99.90;;;;;;5063621;28;20538;-82
2021/07/03 00:46:32;;;;;;;17.88;12.02;;;15.20;99.90;;;;;;5080232;28;20040;-82
2021/07/03 00:48:58;;;;;;;16.60;11.65;;;15.20;99.90;;;;;;5076248;28;20059;-82
2021/07/03 00:51:25;;;;;;;17.15;11.45;;;15.20;99.90;;;;;;5020977;28;20055;-82
2021/07/03 00:53:53;;;;;;;18.90;12.35;;;15.20;99.90;;;;;;5042826;28;20055;-76
2021/07/03 00:56:20;;;;;;;18.48;13.23;;;15.10;99.90;;;;;;5038318;28;20052;-76
2021/07/03 00:58:46;;;;;;;18.70;13.57;;;15.10;99.90;;;;;;5080081;28;20036;-76
2021/07/03 01:01:13;;;;;;;20.75;14.25;;;15.10;99.90;;;;;;5064475;28;20028;-76
2021/07/03 01:03:40;;;;;;;19.98;14.25;;;15.10;99.90;;;;;;5053551;28;20044;-76
2021/07/03 01:06:07;;;;;;;18.83;13.60;;;15.00;99.90;;;;;;5040061;28;20068;-76
2021/07/03 01:08:33;;;;;;;19.05;13.70;;;15.00;99.90;;;;;;5045155;28;20028;-76
2021/07/03 01:11:00;;;;;;;20.75;13.88;;;15.00;99.90;;;;;;5029091;28;20072;-76
2021/07/03 01:13:31;;;;;;;18.52;14.05;;;14.90;99.90;;;;;;5015628;28;20059;-76
2021/07/03 01:16:06;;;;;;;21.38;15.25;;;14.90;99.90;;;;;;5046225;28;20051;-76
2021/07/03 01:18:32;;;;;;;25.70;14.80;;;14.90;99.90;;;;;;5077991;28;20398;-76
2021/07/03 01:21:00;;;;;;;21.38;14.32;;;14.90;99.90;;;;;;5035477;28;20040;-76
2021/07/03 01:23:27;;;;;;;20.45;14.18;;;14.90;99.90;;;;;;5066318;28;20051;-76
2021/07/03 01:25:58;;;;;;;22.35;14.48;;;14.90;99.90;;;;;;5078824;28;20040;-76
2021/07/03 01:28:28;;;;;;;19.60;13.40;;;14.90;99.90;;;;;;5060399;28;20032;-76
2021/07/03 01:30:55;;;;;;;19.42;12.05;;;14.80;99.90;;;;;;5044423;28;20052;-76
2021/07/03 01:33:22;;;;;;;20.75;13.82;;;14.80;99.90;;;;;;5059246;28;20487;-76
2021/07/03 01:35:51;;;;;;;22.60;16.00;;;14.80;99.90;;;;;;5065117;28;20036;-76
2021/07/03 01:38:25;;;;;;;20.38;14.45;;;14.80;99.90;;;;;;5070574;28;20032;-76
2021/07/03 01:40:55;;;;;;;21.90;15.18;;;14.80;99.90;;;;;;5054350;28;20040;-76
2021/07/03 01:43:30;;;;;;;17.30;12.32;;;14.80;99.90;;;;;;5056125;28;20040;-75
2021/07/03 01:46:01;;;;;;;21.27;14.50;;;14.80;99.90;;;;;;5061213;28;20037;-76
2021/07/03 01:48:32;;;;;;;23.73;15.40;;;14.80;99.90;;;;;;5034255;28;20514;-76
2021/07/03 01:51:02;;;;;;;26.92;16.85;;;14.70;99.90;;;;;;5053793;28;20403;-76
2021/07/03 01:53:29;;;;;;;24.15;16.75;;;14.70;99.90;;;;;;5060182;28;20028;-75
2021/07/03 01:56:00;;;;;;;23.85;16.95;;;14.70;99.90;;;;;;5041701;28;20040;-76
2021/07/03 01:58:27;;;;;;;27.35;18.67;;;14.70;99.90;;;;;;5066544;28;20043;-76
2021/07/03 02:01:07;;;;;;;31.02;18.95;;;14.70;99.90;;;;;;5057265;28;20050;-76
2021/07/03 02:03:33;;;;;;;29.88;18.80;;;14.70;99.90;;;;;;5057724;28;20040;-76
2021/07/03 02:06:05;;;;;;;28.63;19.70;;;14.70;99.90;;;;;;5042355;28;20506;-76
2021/07/03 02:08:33;;;;;;;28.92;20.20;;;14.70;99.90;;;;;;5057628;28;20520;-76
2021/07/03 02:11:08;;;;;;;29.25;19.23;;;14.70;99.90;;;;;;5048669;28;20032;-76
2021/07/03 02:13:37;;;;;;;28.80;19.70;;;14.70;99.90;;;;;;5059181;28;20036;-76
2021/07/03 02:16:04;;;;;;;30.25;19.17;;;14.60;99.90;;;;;;5073910;28;20043;-76
2021/07/03 02:18:34;;;;;;;30.25;19.38;;;14.60;99.90;;;;;;5040725;28;20047;-76
2021/07/03 02:21:08;;;;;;;30.52;19.52;;;14.60;99.90;;;;;;5038988;28;20055;-76
2021/07/03 02:23:35;;;;;;;30.98;20.15;;;14.60;99.90;;;;;;5017197;28;20047;-76
2021/07/03 02:26:02;;;;;;;29.85;19.45;;;14.50;99.90;;;;;;5049579;28;20082;-76
2021/07/03 02:28:34;;;;;;;34.05;20.55;;;14.60;99.90;;;;;;5048414;28;20040;-76
2021/07/03 02:31:13;;;;;;;31.63;19.05;;;14.50;99.90;;;;;;5074448;28;20044;-76
2021/07/03 02:33:44;;;;;;;31.83;19.90;;;14.50;99.90;;;;;;5057727;28;20044;-76
2021/07/03 02:36:15;;;;;;;36.97;22.77;;;14.60;99.90;;;;;;5058097;28;20031;-76
2021/07/03 02:38:42;;;;;;;33.95;22.35;;;14.60;99.90;;;;;;5068498;28;20052;-76
2021/07/03 02:41:10;;;;;;;34.03;21.92;;;14.60;99.90;;;;;;5048558;28;20371;-76
2021/07/03 02:43:38;;;;;;;35.00;22.98;;;14.60;99.90;;;;;;5048630;28;20051;-83
2021/07/03 02:46:10;;;;;;;38.28;24.02;;;14.50;99.90;;;;;;5025639;28;20052;-83
2021/07/03 02:48:37;;;;;;;42.67;25.63;;;14.50;99.90;;;;;;5046469;28;20322;-83
2021/07/03 02:51:03;;;;;;;36.97;24.33;;;14.50;99.90;;;;;;5078642;28;20055;-83
2021/07/03 02:53:32;;;;;;;39.00;24.92;;;14.50;99.90;;;;;;5059062;28;20037;-83
2021/07/03 02:55:59;;;;;;;38.85;24.45;;;14.50;99.90;;;;;;5077663;28;20036;-83
2021/07/03 02:58:27;;;;;;;39.70;25.90;;;14.50;99.90;;;;;;5081513;28;20595;-82
2021/07/03 03:00:55;;;;;;;35.75;24.08;;;14.50;99.90;;;;;;5043346;28;20044;-83
2021/07/03 03:03:22;;;;;;;34.00;22.45;;;14.50;99.90;;;;;;5019796;28;20056;-82
2021/07/03 03:05:49;;;;;;;38.78;24.13;;;14.50;99.90;;;;;;5061579;28;20368;-83
2021/07/03 03:08:17;;;;;;;38.17;24.95;;;14.40;99.90;;;;;;5036246;28;20040;-82
2021/07/03 03:10:44;;;;;;;35.15;23.90;;;14.40;99.90;;;;;;5048443;28;20064;-83
2021/07/03 03:13:11;;;;;;;37.42;24.90;;;14.50;99.90;;;;;;5042761;28;20048;-82
2021/07/03 03:15:38;;;;;;;34.83;22.95;;;14.40;99.90;;;;;;5051453;28;20045;-82
2021/07/03 03:18:06;;;;;;;36.40;24.27;;;14.50;99.90;;;;;;5045843;28;20048;-83
2021/07/03 03:20:34;;;;;;;37.05;23.17;;;14.50;99.90;;;;;;5047177;28;20086;-82
2021/07/03 03:23:03;;;;;;;37.58;24.33;;;14.50;99.90;;;;;;5072343;28;20047;-82
2021/07/03 03:25:30;;;;;;;32.35;22.25;;;14.50;99.90;;;;;;5055025;28;20407;-83
2021/07/03 03:27:57;;;;;;;39.45;25.48;;;14.50;99.90;;;;;;5060397;28;20380;-82
2021/07/03 03:30:24;;;;;;;41.15;25.52;;;14.60;99.90;;;;;;5036494;28;20045;-82
2021/07/03 03:32:51;;;;;;;40.95;25.55;;;14.60;99.90;;;;;;5053395;28;20037;-83
2021/07/03 03:35:17;;;;;;;40.70;25.75;;;14.60;99.90;;;;;;5051687;28;20374;-82
2021/07/03 03:37:47;;;;;;;41.53;26.17;;;14.70;99.90;;;;;;5021451;28;20055;-83
2021/07/03 03:40:18;;;;;;;37.33;24.33;;;14.70;99.90;;;;;;5044834;28;20052;-83
2021/07/03 03:42:47;;;;;;;41.83;27.15;;;14.70;99.90;;;;;;5056752;28;20032;-82
2021/07/03 03:45:15;;;;;;;42.95;25.35;;;14.80;99.90;;;;;;5050451;28;20524;-82
2021/07/03 03:47:41;;;;;;;37.22;25.67;;;14.80;99.90;;;;;;5056489;28;20054;-83
2021/07/03 03:50:10;;;;;;;43.88;27.45;;;14.80;99.90;;;;;;5042812;28;20048;-83
2021/07/03 03:52:37;;;;;;;40.80;27.40;;;14.90;99.90;;;;;;5043196;28;20052;-83
2021/07/03 03:55:05;;;;;;;41.47;25.73;;;14.90;99.90;;;;;;5065743;28;20047;-84
2021/07/03 03:57:33;;;;;;;38.40;26.17;;;15.00;99.90;;;;;;5074640;28;20055;-83
2021/07/03 04:00:08;;;;;;;40.38;26.35;;;15.10;99.90;;;;;;5048889;28;20058;-83
2021/07/03 04:02:42;;;;;;;39.15;27.80;;;15.00;99.90;;;;;;5068250;28;20052;-83
2021/07/03 04:05:10;;;;;;;46.05;29.30;;;15.10;99.90;;;;;;5058050;28;20045;-83
2021/07/03 04:07:39;;;;;;;48.03;30.92;;;15.20;99.90;;;;;;5061741;28;20044;-83
2021/07/03 04:10:09;;;;;;;41.03;28.27;;;15.20;99.90;;;;;;5056015;28;20052;-83
2021/07/03 04:12:36;;;;;;;47.15;31.13;;;15.20;99.90;;;;;;5064955;28;20035;-84
2021/07/03 04:15:07;;;;;;;49.90;29.77;;;15.30;99.90;;;;;;5076255;28;20032;-83
2021/07/03 04:17:34;;;;;;;42.85;28.38;;;15.30;99.90;;;;;;5063452;28;20451;-83
2021/07/03 04:20:01;;;;;;;41.30;27.90;;;15.30;99.90;;;;;;5060982;28;20047;-83
2021/07/03 04:22:27;;;;;;;47.03;30.17;;;15.40;99.90;;;;;;5080965;28;20037;-83
2021/07/03 04:24:53;;;;;;;46.60;30.33;;;15.40;99.90;;;;;;5076026;28;20036;-83
2021/07/03 04:27:20;;;;;;;46.42;31.27;;;15.40;99.90;;;;;;5070161;28;20407;-83
2021/07/03 04:29:46;;;;;;;42.58;28.60;;;15.50;99.90;;;;;;5031410;28;20045;-83
2021/07/03 04:32:13;;;;;;;42.83;27.58;;;15.50;99.90;;;;;;5051496;28;20074;-83
2021/07/03 04:34:39;;;;;;;45.30;28.85;;;15.50;99.90;;;;;;5075704;28;20036;-83
2021/07/03 04:37:06;;;;;;;47.60;28.70;;;15.60;99.90;;;;;;5076662;28;20043;-83
2021/07/03 04:39:32;;;;;;;41.30;29.27;;;15.70;99.90;;;;;;5045858;28;20048;-83
2021/07/03 04:41:59;;;;;;;43.03;28.08;;;15.60;99.90;;;;;;5073180;28;20033;-83
2021/07/03 04:44:25;;;;;;;47.30;31.33;;;15.60;99.90;;;;;;5080965;28;20044;-83
2021/07/03 04:46:52;;;;;;;50.63;31.63;;;15.60;99.90;;;;;;5039260;28;20055;-83
2021/07/03 04:49:18;;;;;;;45.17;28.52;;;15.60;99.90;;;;;;5052343;28;20402;-83
2021/07/03 04:51:46;;;;;;;45.33;29.98;;;15.60;99.90;;;;;;5058713;28;20044;-83
2021/07/03 04:54:12;;;;;;;46.13;30.77;;;15.60;99.90;;;;;;5041965;28;20055;-83
2021/07/03 04:56:39;;;;;;;49.83;31.17;;;15.70;99.90;;;;;;5033645;28;20048;-83
2021/07/03 04:59:05;;;;;;;42.85;29.15;;;15.70;99.90;;;;;;5062099;28;20042;-83
2021/07/03 05:01:32;;;;;;;42.60;28.77;;;15.80;99.90;;;;;;5031111;28;20411;-83
2021/07/03 05:03:58;;;;;;;43.25;27.75;;;15.90;99.90;;;;;;5062733;28;20044;-84
2021/07/03 05:06:25;;;;;;;46.22;30.80;;;16.00;99.90;;;;;;5053192;28;20134;-84
2021/07/03 05:08:51;;;;;;;42.15;28.98;;;16.00;99.90;;;;;;5059876;28;20515;-83
2021/07/03 05:11:18;;;;;;;42.00;28.95;;;16.10;99.90;;;;;;5051085;28;20060;-83
2021/07/03 05:13:44;;;;;;;47.50;31.40;;;16.20;99.90;;;;;;5081478;28;20043;-84
2021/07/03 05:16:11;;;;;;;43.63;29.10;;;16.20;99.90;;;;;;5037999;28;20051;-83
2021/07/03 05:18:37;;;;;;;42.70;28.38;;;16.20;99.90;;;;;;5075030;28;20024;-84
2021/07/03 05:21:04;;;;;;;48.40;30.35;;;16.20;99.90;;;;;;5049478;28;20053;-83
2021/07/03 05:23:30;;;;;;;42.38;28.60;;;16.20;99.90;;;;;;5060350;28;20048;-83
2021/07/03 05:25:57;;;;;;;43.08;28.05;;;16.30;99.90;;;;;;5040472;28;20041;-84
2021/07/03 05:28:24;;;;;;;44.67;28.70;;;16.40;99.90;;;;;;5080443;28;20552;-83
2021/07/03 05:30:52;;;;;;;42.97;28.45;;;16.50;99.90;;;;;;5058868;28;20040;-83
2021/07/03 05:33:19;;;;;;;42.78;29.20;;;16.70;99.90;;;;;;5074718;28;20337;-83
2021/07/03 05:35:46;;;;;;;46.05;29.35;;;16.80;99.90;;;;;;5065159;28;20075;-83
2021/07/03 05:38:12;;;;;;;43.53;28.27;;;16.90;99.90;;;;;;5061840;28;20058;-83
2021/07/03 05:40:39;;;;;;;40.30;27.75;;;16.90;99.90;;;;;;5062504;28;20043;-83
2021/07/03 05:43:05;;;;;;;41.90;29.02;;;17.00;99.90;;;;;;5058118;28;20407;-83
2021/07/03 05:45:32;;;;;;;44.17;29.35;;;17.10;99.90;;;;;;5033099;28;20056;-83
2021/07/03 05:47:58;;;;;;;41.03;29.17;;;17.30;99.90;;;;;;5077579;28;20075;-84
2021/07/03 05:50:27;;;;;;;45.55;30.42;;;17.40;99.90;;;;;;5044720;28;20056;-84
2021/07/03 05:52:54;;;;;;;44.10;29.83;;;17.50;99.90;;;;;;5084790;28;20497;-83
2021/07/03 05:55:21;;;;;;;43.92;30.27;;;17.70;99.90;;;;;;5070507;28;20040;-83
2021/07/03 05:57:48;;;;;;;43.63;29.75;;;17.80;99.90;;;;;;5082141;28;20479;-84
2021/07/03 06:00:16;;;;;;;45.97;32.70;;;18.00;99.90;;;;;;5073485;28;20056;-83
2021/07/03 06:02:44;;;;;;;43.85;31.23;;;18.20;99.90;;;;;;5064355;28;20058;-83
2021/07/03 06:05:11;;;;;;;43.05;30.38;;;18.40;99.90;;;;;;5060032;28;20050;-83
2021/07/03 06:07:38;;;;;;;48.60;33.65;;;18.70;99.90;;;;;;5057237;28;20054;-84
2021/07/03 06:10:05;;;;;;;46.75;32.63;;;19.00;99.90;;;;;;5083662;28;20047;-83
2021/07/03 06:12:32;;;;;;;48.67;33.90;;;19.30;99.90;;;;;;5082727;28;20051;-76
2021/07/03 06:14:58;;;;;;;42.03;30.33;;;19.50;99.90;;;;;;5066235;28;20078;-76
2021/07/03 06:17:24;;;;;;;40.65;28.50;;;19.70;99.90;;;;;;5059229;28;21592;-76
2021/07/03 06:19:51;;;;;;;42.03;31.15;;;19.80;99.90;;;;;;5062851;28;20488;-76
2021/07/03 06:22:17;;;;;;;38.45;28.35;;;20.00;99.90;;;;;;5068446;28;20043;-76
2021/07/03 06:24:47;;;;;;;35.42;28.15;;;20.20;99.90;;;;;;5077900;28;20043;-76
2021/07/03 06:27:13;;;;;;;35.83;26.50;;;20.40;99.90;;;;;;5059729;28;20051;-76
2021/07/03 06:29:40;;;;;;;39.03;27.92;;;20.50;99.90;;;;;;5060368;28;20035;-76
2021/07/03 06:32:07;;;;;;;37.80;27.73;;;20.60;99.90;;;;;;5083112;28;20059;-76
2021/07/03 06:34:34;;;;;;;35.53;25.63;;;20.60;99.90;;;;;;5076443;28;20055;-75
2021/07/03 06:37:00;;;;;;;37.90;28.05;;;20.70;99.90;;;;;;5075813;28;20048;-76
2021/07/03 06:39:27;;;;;;;35.22;27.83;;;20.70;99.50;;;;;;5059444;28;20598;-76
2021/07/03 06:41:53;;;;;;;33.40;25.02;;;20.70;99.40;;;;;;5056957;28;20063;-76
2021/07/03 06:44:20;;;;;;;32.13;25.88;;;20.80;99.30;;;;;;5040492;28;20048;-76
2021/07/03 06:46:46;;;;;;;36.00;26.75;;;20.90;99.10;;;;;;5066583;28;20040;-76
2021/07/03 06:49:14;;;;;;;38.90;28.02;;;20.90;99.00;;;;;;5062385;28;20060;-76
2021/07/03 06:51:41;;;;;;;28.95;23.92;;;20.90;98.80;;;;;;5065869;28;20036;-76
2021/07/03 06:54:07;;;;;;;34.03;25.40;;;20.80;99.00;;;;;;5075195;28;20040;-76
2021/07/03 06:56:34;;;;;;;29.33;22.33;;;20.80;99.00;;;;;;5048699;28;20426;-76
2021/07/03 06:59:01;;;;;;;31.48;23.90;;;20.80;99.00;;;;;;5051288;28;20048;-76
2021/07/03 07:01:27;;;;;;;29.88;22.88;;;20.80;98.90;;;;;;5062496;28;20059;-76
2021/07/03 07:03:53;;;;;;;26.17;20.58;;;20.90;98.70;;;;;;5041467;28;20491;-76
2021/07/03 07:06:20;;;;;;;24.60;18.38;;;21.10;98.60;;;;;;5047984;28;20036;-76
2021/07/03 07:08:46;;;;;;;25.13;21.58;;;21.20;98.50;;;;;;5065395;28;20044;-76
2021/07/03 07:11:12;;;;;;;29.27;22.15;;;21.40;98.10;;;;;;5050680;28;20262;-76
2021/07/03 07:13:39;;;;;;;28.95;21.48;;;21.60;97.80;;;;;;5049770;28;20498;-76
2021/07/03 07:16:05;;;;;;;23.50;20.45;;;21.80;97.70;;;;;;5039888;28;20048;-76
2021/07/03 07:18:32;;;;;;;24.75;19.85;;;21.90;97.00;;;;;;5049950;28;20043;-84
2021/07/03 07:20:58;;;;;;;27.48;21.92;;;22.10;96.50;;;;;;5069048;28;20051;-84
2021/07/03 07:23:24;;;;;;;25.42;19.58;;;22.20;96.70;;;;;;5040129;28;20052;-84
2021/07/03 07:25:51;;;;;;;28.00;21.48;;;22.30;96.40;;;;;;5081200;28;20043;-84
2021/07/03 07:28:18;;;;;;;24.77;20.00;;;22.40;96.00;;;;;;5045494;28;20426;-84
2021/07/03 07:30:44;;;;;;;26.80;20.65;;;22.50;95.80;;;;;;5047980;28;20052;-83
2021/07/03 07:33:10;;;;;;;24.15;20.25;;;22.60;95.80;;;;;;5036487;28;20046;-84
2021/07/03 07:35:37;;;;;;;25.17;22.02;;;22.80;95.50;;;;;;5066084;28;20044;-84
2021/07/03 07:38:03;;;;;;;24.13;20.95;;;22.90;95.10;;;;;;5065612;28;20401;-76
2021/07/03 07:40:30;;;;;;;24.13;20.33;;;22.90;94.50;;;;;;5077979;28;20063;-76
2021/07/03 07:42:56;;;;;;;22.95;19.42;;;23.00;94.60;;;;;;5055137;28;20499;-76
2021/07/03 07:45:23;;;;;;;27.98;22.42;;;23.10;94.50;;;;;;5063361;28;20048;-77
2021/07/03 07:47:49;;;;;;;26.42;22.55;;;23.20;94.30;;;;;;5065376;28;20047;-77
2021/07/03 07:50:16;;;;;;;24.10;21.55;;;23.20;94.00;;;;;;5077892;28;20059;-77
2021/07/03 07:52:43;;;;;;;23.70;19.92;;;23.30;94.10;;;;;;5047259;28;20041;-77
2021/07/03 07:55:10;;;;;;;27.50;23.10;;;23.40;93.90;;;;;;5071004;28;20039;-77
2021/07/03 07:57:36;;;;;;;26.42;22.73;;;23.50;93.60;;;;;;5067580;28;20063;-77
2021/07/03 08:00:05;;;;;;;22.83;19.88;;;23.50;93.40;;;;;;5061741;28;20044;-77
2021/07/03 08:02:40;;;;;;;23.58;19.95;;;23.60;93.30;;;;;;5084196;28;20043;-77
2021/07/03 08:05:07;;;;;;;23.42;20.95;;;23.70;93.30;;;;;;5055239;28;20045;-77
2021/07/03 08:07:33;;;;;;;27.05;22.55;;;23.80;93.00;;;;;;5066054;28;20055;-77
2021/07/03 08:10:00;;;;;;;21.65;17.85;;;23.90;92.70;;;;;;5048007;28;20048;-77
2021/07/03 08:12:26;;;;;;;24.83;22.15;;;24.00;92.50;;;;;;5072745;28;20490;-78
2021/07/03 08:14:52;;;;;;;27.65;21.80;;;24.10;92.30;;;;;;5071674;28;20040;-78
2021/07/03 08:17:19;;;;;;;24.60;20.98;;;24.20;92.20;;;;;;5065279;28;20043;-77
2021/07/03 08:19:45;;;;;;;24.63;21.80;;;24.30;92.10;;;;;;5053162;28;20028;-84
2021/07/03 08:22:12;;;;;;;24.42;19.25;;;24.50;92.00;;;;;;5032027;28;20524;-84
2021/07/03 08:24:38;;;;;;;25.77;21.15;;;24.60;91.70;;;;;;5078494;28;20048;-84
2021/07/03 08:27:05;;;;;;;28.20;24.88;;;24.60;91.40;;;;;;5056017;28;20063;-84
2021/07/03 08:29:31;;;;;;;23.20;19.88;;;24.70;91.10;;;;;;5056717;28;20047;-84
2021/07/03 08:31:58;;;;;;;23.27;20.42;;;24.80;91.20;;;;;;5052712;28;20051;-84
2021/07/03 08:34:24;;;;;;;20.80;18.13;;;25.00;91.10;;;;;;5060032;28;20047;-84
2021/07/03 08:36:50;;;;;;;23.42;19.75;;;25.10;91.10;;;;;;5059432;28;20039;-84
2021/07/03 08:39:18;;;;;;;21.05;17.55;;;25.30;91.10;;;;;;5079137;28;20520;-78
2021/07/03 08:41:44;;;;;;;19.00;16.48;;;25.40;90.60;;;;;;5070504;28;20060;-78
2021/07/03 08:44:14;;;;;;;15.25;13.43;;;25.50;90.20;;;;;;5050631;28;20577;-78
2021/07/03 08:46:45;;;;;;;19.77;15.40;;;25.70;88.00;;;;;;5071612;28;20032;-78
2021/07/03 08:49:16;;;;;;;15.10;13.30;;;25.70;86.70;;;;;;5051615;28;20077;-78
2021/07/03 08:51:46;;;;;;;15.45;13.85;;;25.70;86.60;;;;;;5061231;28;20071;-86
2021/07/03 08:54:13;;;;;;;12.88;11.23;;;25.70;86.40;;;;;;5078629;28;20044;-77
2021/07/03 08:56:39;;;;;;;14.85;13.10;;;25.90;86.50;;;;;;5065040;28;20707;-77
2021/07/03 08:59:22;;;;;;;14.15;11.75;;;26.00;85.80;;;;;;5076729;28;20386;-77
2021/07/03 09:01:54;;;;;;;15.38;13.23;;;26.10;86.00;;;;;;5091465;27;20048;-77
2021/07/03 09:04:40;;;;;;;16.58;13.77;;;26.30;85.20;;;;;;5075574;28;20047;-77
2021/07/03 09:07:21;;;;;;;12.95;10.93;;;26.40;84.40;;;;;;5049528;28;20044;-78
2021/07/03 09:09:52;;;;;;;12.77;9.65;;;26.50;84.40;;;;;;5059302;28;20044;-75
2021/07/03 09:12:30;;;;;;;15.35;10.35;;;26.60;84.40;;;;;;5044416;28;20063;-75
2021/07/03 09:15:07;;;;;;;14.88;11.05;;;26.70;83.70;;;;;;5077313;28;20051;-75
2021/07/03 09:17:45;;;;;;;14.77;10.55;;;26.90;83.00;;;;;;5067108;28;20040;-75
2021/07/03 09:20:12;;;;;;;12.88;9.88;;;26.90;82.30;;;;;;5066840;28;20036;-75
2021/07/03 09:22:38;;;;;;;10.10;8.32;;;27.00;82.90;;;;;;5083614;28;20036;-76
2021/07/03 09:25:19;;;;;;;10.90;9.80;;;27.20;81.60;;;;;;5036565;28;20411;-75
2021/07/03 09:27:46;;;;;;;11.38;10.02;;;27.30;80.90;;;;;;5058398;28;20054;-76
2021/07/03 09:30:19;;;;;;;12.85;10.10;;;27.50;80.70;;;;;;5051634;28;20039;-76
2021/07/03 09:32:51;;;;;;;10.65;8.52;;;27.60;80.60;;;;;;5059885;28;20498;-76
2021/07/03 09:35:18;;;;;;;10.02;8.43;;;27.70;80.10;;;;;;5082620;28;20064;-84
2021/07/03 09:37:44;;;;;;;8.57;7.68;;;27.90;78.80;;;;;;5064761;28;20044;-84
2021/07/03 09:40:12;;;;;;;8.25;7.05;;;27.90;77.50;;;;;;5065136;28;20091;-85
2021/07/03 09:42:40;;;;;;;8.57;7.28;;;27.90;76.00;;;;;;5077697;28;20040;-84
2021/07/03 09:45:08;;;;;;;11.00;8.40;;;28.00;74.30;;;;;;5053479;28;21100;-84
2021/07/03 09:47:35;;;;;;;8.45;7.15;;;27.90;73.80;;;;;;5048071;28;20054;-84
2021/07/03 09:50:12;;;;;;;6.82;5.45;;;27.90;74.00;;;;;;5078934;28;20059;-85
2021/07/03 09:52:39;;;;;;;9.48;7.03;;;28.00;72.20;;;;;;5080787;28;20043;-83
2021/07/03 09:55:08;;;;;;;6.60;5.70;;;28.00;72.00;;;;;;5076840;28;20044;-84
2021/07/03 09:57:37;;;;;;;11.55;9.40;;;28.10;72.50;;;;;;5079438;28;20040;-76
2021/07/03 10:00:09;;;;;;;10.07;8.88;;;28.20;71.50;;;;;;5055584;28;20466;-76
2021/07/03 10:02:38;;;;;;;8.40;6.80;;;28.20;71.50;;;;;;5080465;28;20045;-77
2021/07/03 10:05:05;;;;;;;8.90;6.32;;;28.30;71.20;;;;;;5030949;28;20048;-76
2021/07/03 10:07:38;;;;;;;6.75;5.88;;;28.30;70.70;;;;;;5041383;28;20139;-76
2021/07/03 10:10:19;;;;;;;6.97;6.18;;;28.40;70.50;;;;;;5057573;28;20044;-76
2021/07/03 10:13:03;;;;;;;6.68;5.85;;;28.60;69.80;;;;;;5062547;28;20051;-76
2021/07/03 10:15:32;;;;;;;10.50;9.40;;;28.70;69.20;;;;;;5072071;28;20486;-79
2021/07/03 10:18:10;;;;;;;7.47;5.90;;;28.80;67.50;;;;;;5046134;28;20036;-77
2021/07/03 10:20:37;;;;;;;9.80;6.50;;;28.80;67.70;;;;;;5050799;28;20039;-82
2021/07/03 10:23:04;;;;;;;7.25;5.50;;;28.90;66.70;;;;;;5065312;28;20040;-81
2021/07/03 10:25:34;;;;;;;6.18;5.10;;;28.90;67.60;;;;;;5071185;28;20529;-83
2021/07/03 10:28:03;;;;;;;8.50;5.28;;;29.10;68.00;;;;;;5077417;28;20059;-84
2021/07/03 10:30:31;;;;;;;8.43;5.15;;;29.40;67.80;;;;;;5055434;28;20047;-81
2021/07/03 10:33:01;;;;;;;7.45;5.82;;;29.50;66.50;;;;;;5045453;28;20044;-82
2021/07/03 10:35:49;;;;;;;8.38;7.13;;;29.70;66.40;;;;;;5049258;28;20036;-84
2021/07/03 10:38:20;;;;;;;13.63;10.93;;;29.80;65.50;;;;;;5080732;28;20042;-84
2021/07/03 10:40:48;;;;;;;9.10;6.18;;;29.90;64.00;;;;;;5052311;28;20052;-84
2021/07/03 10:43:15;;;;;;;9.88;7.72;;;29.90;64.50;;;;;;5068347;28;20039;-84
2021/07/03 10:45:55;;;;;;;12.93;11.25;;;30.00;64.50;;;;;;5040468;28;20044;-80
2021/07/03 10:48:24;;;;;;;7.95;7.00;;;30.20;63.90;;;;;;5048668;28;20440;-81
2021/07/03 10:50:53;;;;;;;25.42;22.05;;;30.20;63.40;;;;;;5054769;28;20073;-80
2021/07/03 10:53:28;;;;;;;9.23;7.88;;;30.50;64.10;;;;;;5070682;28;20055;-81
2021/07/03 10:56:09;;;;;;;8.43;6.53;;;30.80;62.90;;;;;;5076110;28;20484;-81
2021/07/03 10:58:40;;;;;;;8.57;6.95;;;31.00;62.50;;;;;;5050592;28;20043;-79
2021/07/03 11:01:09;;;;;;;7.07;5.43;;;31.20;61.10;;;;;;5050994;28;20051;-79
2021/07/03 11:03:49;;;;;;;8.20;5.53;;;31.40;60.90;;;;;;5054112;28;20486;-79
2021/07/03 11:06:19;;;;;;;6.45;5.35;;;31.60;60.00;;;;;;5060284;28;20040;-80
2021/07/03 11:08:47;;;;;;;9.15;6.60;;;32.00;60.10;;;;;;5051870;28;20047;-80
2021/07/03 11:11:16;;;;;;;6.28;5.40;;;32.30;58.30;;;;;;5045678;28;20048;-79
2021/07/03 11:13:45;;;;;;;5.97;5.43;;;32.40;58.30;;;;;;5077679;28;20036;-81
2021/07/03 11:16:14;;;;;;;6.57;5.93;;;32.50;56.40;;;;;;5070100;28;20035;-78
2021/07/03 11:18:43;;;;;;;6.32;5.13;;;32.40;56.50;;;;;;5074189;28;20561;-78
2021/07/03 11:21:14;;;;;;;6.13;5.57;;;32.30;56.80;;;;;;5045640;28;20055;-79
2021/07/03 11:23:41;;;;;;;5.90;5.10;;;32.30;56.80;;;;;;5082767;28;20039;-78
2021/07/03 11:26:17;;;;;;;6.85;5.47;;;32.30;56.10;;;;;;5057380;28;20450;-79
2021/07/03 11:28:51;;;;;;;6.20;5.10;;;32.40;55.90;;;;;;5084626;28;20050;-80
2021/07/03 11:31:20;;;;;;;4.88;4.38;;;32.70;55.40;;;;;;5062683;28;20153;-80
2021/07/03 11:33:46;;;;;;;6.65;4.22;;;33.00;54.10;;;;;;5069293;28;20040;-81
2021/07/03 11:36:15;;;;;;;5.57;4.55;;;33.40;54.30;;;;;;5067028;28;20043;-78
2021/07/03 11:38:41;;;;;;;4.93;4.50;;;33.80;52.50;;;;;;5035058;28;20048;-79
2021/07/03 11:41:08;;;;;;;4.68;4.18;;;33.90;51.90;;;;;;5028045;28;20044;-77
2021/07/03 11:43:34;;;;;;;5.57;4.32;;;34.10;51.60;;;;;;5025736;28;20407;-78
2021/07/03 11:46:02;;;;;;;4.25;3.85;;;34.40;51.30;;;;;;5035077;28;20055;-76
2021/07/03 11:48:30;;;;;;;4.30;3.78;;;34.70;51.00;;;;;;5039691;28;20059;-78
2021/07/03 11:50:59;;;;;;;6.05;3.72;;;34.70;50.60;;;;;;5014349;28;20055;-78
2021/07/03 11:53:28;;;;;;;4.40;4.00;;;34.50;50.40;;;;;;5059036;28;20043;-84
2021/07/03 11:55:56;;;;;;;4.75;4.25;;;34.20;51.30;;;;;;5041595;28;20534;-82
2021/07/03 11:58:30;;;;;;;5.32;4.68;;;33.80;50.70;;;;;;5034184;28;20048;-80
2021/07/03 12:00:59;;;;;;;4.63;3.72;;;33.50;50.00;;;;;;5067147;28;20029;-79
2021/07/03 12:03:27;;;;;;;4.60;3.80;;;33.40;51.00;;;;;;5039541;28;20503;-78
2021/07/03 12:05:57;;;;;;;4.25;3.83;;;33.50;51.20;;;;;;5053829;28;20044;-78
2021/07/03 12:08:51;;;;;;;6.43;4.30;;;33.40;51.10;;;;;;5074261;28;20857;-75
2021/07/03 12:11:22;;;;;;;4.00;3.63;;;33.60;50.90;;;;;;5063289;28;20036;-77
2021/07/03 12:14:00;;;;;;;4.80;3.63;;;33.70;49.80;;;;;;5052306;28;20044;-77
2021/07/03 12:16:26;;;;;;;4.75;4.35;;;33.60;49.60;;;;;;5065151;28;20032;-79
2021/07/03 12:18:55;;;;;;;5.32;4.75;;;33.40;49.30;;;;;;5068493;28;20036;-81
2021/07/03 12:21:25;;;;;;;5.40;4.90;;;33.00;49.90;;;;;;5058378;28;20058;-78
2021/07/03 12:23:57;;;;;;;5.00;4.28;;;32.80;49.80;;;;;;5058693;28;20517;-78
2021/07/03 12:26:37;;;;;;;4.22;3.83;;;32.50;50.30;;;;;;5086768;28;20039;-79
2021/07/03 12:29:11;;;;;;;4.17;3.70;;;32.50;51.10;;;;;;5057616;28;20056;-79
2021/07/03 12:31:39;;;;;;;4.00;3.60;;;33.00;51.50;;;;;;5049528;28;20088;-79
2021/07/03 12:34:11;;;;;;;4.53;3.67;;;33.70;50.90;;;;;;5073897;28;20031;-80
2021/07/03 12:36:45;;;;;;;3.80;3.03;;;34.40;49.50;;;;;;5059213;28;20045;-82